Map

Track Data

SID SEASON NUMBER BASIN SUBBASIN NAME ISO_TIME NATURE LAT LON WMO_WIND WMO_PRES WMO_AGENCY TRACK_TYPE DIST2LAND LANDFALL IFLAG USA_AGENCY USA_ATCF_ID USA_LAT USA_LON USA_RECORD USA_STATUS USA_WIND USA_PRES USA_SSHS USA_R34_NE USA_R34_SE USA_R34_SW USA_R34_NW USA_R50_NE USA_R50_SE USA_R50_SW USA_R50_NW USA_R64_NE USA_R64_SE USA_R64_SW USA_R64_NW USA_POCI USA_ROCI USA_RMW USA_EYE TOKYO_LAT TOKYO_LON TOKYO_GRADE TOKYO_WIND TOKYO_PRES TOKYO_R50_DIR TOKYO_R50_LONG TOKYO_R50_SHORT TOKYO_R30_DIR TOKYO_R30_LONG TOKYO_R30_SHORT TOKYO_LAND CMA_LAT CMA_LON CMA_CAT CMA_WIND CMA_PRES HKO_LAT HKO_LON HKO_CAT HKO_WIND HKO_PRES NEWDELHI_LAT NEWDELHI_LON NEWDELHI_GRADE NEWDELHI_WIND NEWDELHI_PRES NEWDELHI_CI NEWDELHI_DP NEWDELHI_POCI REUNION_LAT REUNION_LON REUNION_TYPE REUNION_WIND REUNION_PRES REUNION_TNUM REUNION_CI REUNION_RMW REUNION_R34_NE REUNION_R34_SE REUNION_R34_SW REUNION_R34_NW REUNION_R50_NE REUNION_R50_SE REUNION_R50_SW REUNION_R50_NW REUNION_R64_NE REUNION_R64_SE REUNION_R64_SW REUNION_R64_NW BOM_LAT BOM_LON BOM_TYPE BOM_WIND BOM_PRES BOM_TNUM BOM_CI BOM_RMW BOM_R34_NE BOM_R34_SE BOM_R34_SW BOM_R34_NW BOM_R50_NE BOM_R50_SE BOM_R50_SW BOM_R50_NW BOM_R64_NE BOM_R64_SE BOM_R64_SW BOM_R64_NW BOM_ROCI BOM_POCI BOM_EYE BOM_POS_METHOD BOM_PRES_METHOD NADI_LAT NADI_LON NADI_CAT NADI_WIND NADI_PRES WELLINGTON_LAT WELLINGTON_LON WELLINGTON_WIND WELLINGTON_PRES DS824_LAT DS824_LON DS824_STAGE DS824_WIND DS824_PRES TD9636_LAT TD9636_LON TD9636_STAGE TD9636_WIND TD9636_PRES TD9635_LAT TD9635_LON TD9635_WIND TD9635_PRES TD9635_ROCI NEUMANN_LAT NEUMANN_LON NEUMANN_CLASS NEUMANN_WIND NEUMANN_PRES MLC_LAT MLC_LON MLC_CLASS MLC_WIND MLC_PRES USA_GUST BOM_GUST BOM_GUST_PER REUNION_GUST REUNION_GUST_PER USA_SEAHGT USA_SEARAD_NE USA_SEARAD_SE USA_SEARAD_SW USA_SEARAD_NW STORM_SPEED STORM_DIR
2000187N12245 2000 43 EP MM NOT_NAMED 2000-07-05 00:00:00 NR 12.3000 -115.400 main 1316 1315 O_____________ jtwc_ep EP042000 12.3000 -115.400 20 -1 7 285
2000187N12245 2000 43 EP MM NOT_NAMED 2000-07-05 03:00:00 NR 12.3976 -115.762 main 1325 1325 P_____________ EP042000 12.3976 -115.762 20 -1 7 286
2000187N12245 2000 43 EP MM NOT_NAMED 2000-07-05 06:00:00 NR 12.5000 -116.100 main 1330 1330 O_____________ jtwc_ep EP042000 12.5000 -116.100 20 -1 7 289
2000187N12245 2000 43 EP MM NOT_NAMED 2000-07-05 09:00:00 NR 12.6074 -116.400 main 1336 1332 P_____________ EP042000 12.6074 -116.400 20 -1 6 289
2000187N12245 2000 43 EP MM NOT_NAMED 2000-07-05 12:00:00 NR 12.7000 -116.700 main 1343 1343 O_____________ jtwc_ep EP042000 12.7000 -116.700 20 -1 6 284
2000187N12245 2000 43 EP MM NOT_NAMED 2000-07-05 15:00:00 NR 12.7650 -117.035 main 1350 1350 P_____________ EP042000 12.7650 -117.035 20 -1 7 278
2000187N12245 2000 43 EP MM NOT_NAMED 2000-07-05 18:00:00 NR 12.8000 -117.400 main 1374 1374 O_____________ jtwc_ep EP042000 12.8000 -117.400 20 -1 7 273
2000187N12245 2000 43 EP MM NOT_NAMED 2000-07-05 21:00:00 NR 12.8074 -117.785 main 1398 1398 P_____________ EP042000 12.8074 -117.785 20 -1 8 270
2000187N12245 2000 43 EP MM NOT_NAMED 2000-07-06 00:00:00 NR 12.8000 -118.200 main 1424 1424 O_____________ jtwc_ep EP042000 12.8000 -118.200 20 -1 8 269
2000187N12245 2000 43 EP MM NOT_NAMED 2000-07-06 03:00:00 NR 12.8000 -118.643 main 1450 1450 P_____________ EP042000 12.8000 -118.643 20 -1 9 270
2000187N12245 2000 43 EP MM NOT_NAMED 2000-07-06 06:00:00 NR 12.8000 -119.100 main 1483 1483 O_____________ jtwc_ep EP042000 12.8000 -119.100 20 -1 9 270
2000187N12245 2000 43 EP MM NOT_NAMED 2000-07-06 09:00:00 NR 12.7924 -119.550 main 1518 1518 P_____________ EP042000 12.7924 -119.550 22 -1 9 270
2000187N12245 2000 43 EP MM NOT_NAMED 2000-07-06 12:00:00 TS 12.8000 -120.000 25 hurdat_epa main 1547 1547 O_____________ hurdat_epa EP042000 12.8000 -120.000 TD 25 -1 9 274
2000187N12245 2000 43 EP MM NOT_NAMED 2000-07-06 15:00:00 TS 12.8463 -120.441 main 1576 1575 P_____________ EP042000 12.8424 -120.442 TD 25 -1 9 277
2000187N12245 2000 43 EP MM NOT_NAMED 2000-07-06 18:00:00 TS 12.9000 -120.900 25 hurdat_epa main 1605 1605 O_____________ hurdat_epa EP042000 12.9000 -120.900 TD 25 -1 9 276
2000187N12245 2000 43 EP MM NOT_NAMED 2000-07-06 21:00:00 TS 12.9499 -121.393 main 1641 1632 P_____________ EP042000 12.9499 -121.393 TD 25 -1 10 276
2000187N12245 2000 43 EP MM NOT_NAMED 2000-07-07 00:00:00 TS 13.0000 -121.900 25 hurdat_epa main 1664 1664 O_____________ hurdat_epa EP042000 13.0000 -121.900 TD 25 -1 10 276
2000187N12245 2000 43 EP MM NOT_NAMED 2000-07-07 03:00:00 TS 13.0498 -122.378 main 1697 1688 P_____________ EP042000 13.0498 -122.378 TD 25 -1 10 276
2000187N12245 2000 43 EP MM NOT_NAMED 2000-07-07 06:00:00 TS 13.1000 -122.900 25 hurdat_epa main 1722 1722 O_____________ hurdat_epa EP042000 13.1000 -122.900 TD 25 -1 11 275
2000187N12245 2000 43 EP MM NOT_NAMED 2000-07-07 09:00:00 TS 13.1505 -123.520 main 1756 1756 P_____________ EP042000 13.1505 -123.520 TD 22 -1 13 275
2000187N12245 2000 43 EP MM NOT_NAMED 2000-07-07 12:00:00 TS 13.2000 -124.200 20 hurdat_epa main 1807 O_____________ hurdat_epa EP042000 13.2000 -124.200 TD 20 -1 13 274

About IBTrACS Database

This database is a web-friendly format of International Best Track Archive for Climate Stewardship (IBTrACS), a global best track data archive curated by NOAA dating back to 1842.

Updated: 2021-10-08